METAR Data
IDs: Format: Raw Decoded Include TAF

Data at: 1623 UTC 20 Sep 2018

METAR for:KSFO (San Francisco Intl, CA, US)
Text:KSFO 201556Z 00000KT 10SM FEW200 18/13 A2988 RMK AO2 SLP117 T01830128
Temperature: 18.3°C ( 65°F)
Dewpoint: 12.8°C ( 55°F) [RH = 70%]
Pressure (altimeter):29.88 inches Hg (1011.9 mb) [Sea level pressure: 1011.7 mb]
Winds:calm
Visibility:10 or more sm (16+ km)
Ceiling:at least 12,000 feet AGL
Clouds: few clouds at 20000 feet AGL
Text:KSFO 201456Z 00000KT 10SM FEW200 15/11 A2987 RMK AO2 SLP113 T01500106 53015
Temperature: 15.0°C ( 59°F)
Dewpoint: 10.6°C ( 51°F) [RH = 75%]
Pressure (altimeter):29.87 inches Hg (1011.6 mb) [Sea level pressure: 1011.3 mb]
Winds:calm
Visibility:10 or more sm (16+ km)
Ceiling:at least 12,000 feet AGL
Clouds: few clouds at 20000 feet AGL
Text:KSFO 201356Z 27003KT 10SM FEW200 13/08 A2985 RMK AO2 SLP106 T01280083
Temperature: 12.8°C ( 55°F)
Dewpoint: 8.3°C ( 47°F) [RH = 74%]
Pressure (altimeter):29.85 inches Hg (1010.9 mb) [Sea level pressure: 1010.6 mb]
Winds:from the W (270 degrees) at 3 MPH (3 knots; 1.5 m/s)
Visibility:10 or more sm (16+ km)
Ceiling:at least 12,000 feet AGL
Clouds: few clouds at 20000 feet AGL
Text:KSFO 201256Z 24003KT 10SM CLR 13/07 A2984 RMK AO2 SLP103 T01280067
Temperature: 12.8°C ( 55°F)
Dewpoint: 6.7°C ( 44°F) [RH = 66%]
Pressure (altimeter):29.84 inches Hg (1010.6 mb) [Sea level pressure: 1010.3 mb]
Winds:from the WSW (240 degrees) at 3 MPH (3 knots; 1.5 m/s)
Visibility:10 or more sm (16+ km)
Ceiling:at least 12,000 feet AGL
Clouds:sky clear below 12,000 feet AGL
Text:KSFO 201156Z 26004KT 10SM CLR 13/07 A2982 RMK AO2 SLP098 T01330072 10156 20128 53001
Temperature: 13.3°C ( 56°F)
Dewpoint: 7.2°C ( 45°F) [RH = 66%]
Pressure (altimeter):29.82 inches Hg (1009.9 mb) [Sea level pressure: 1009.8 mb]
Winds:from the W (260 degrees) at 5 MPH (4 knots; 2.1 m/s)
Visibility:10 or more sm (16+ km)
Ceiling:at least 12,000 feet AGL
Clouds:sky clear below 12,000 feet AGL
Text:KSFO 201056Z 23003KT 10SM CLR 13/08 A2982 RMK AO2 SLP096 T01280078
Temperature: 12.8°C ( 55°F)
Dewpoint: 7.8°C ( 46°F) [RH = 72%]
Pressure (altimeter):29.82 inches Hg (1009.9 mb) [Sea level pressure: 1009.6 mb]
Winds:from the SW (230 degrees) at 3 MPH (3 knots; 1.5 m/s)
Visibility:10 or more sm (16+ km)
Ceiling:at least 12,000 feet AGL
Clouds:sky clear below 12,000 feet AGL
Text:KSFO 200956Z 00000KT 10SM CLR 14/08 A2982 RMK AO2 SLP098 T01390078
Temperature: 13.9°C ( 57°F)
Dewpoint: 7.8°C ( 46°F) [RH = 67%]
Pressure (altimeter):29.82 inches Hg (1009.9 mb) [Sea level pressure: 1009.8 mb]
Winds:calm
Visibility:10 or more sm (16+ km)
Ceiling:at least 12,000 feet AGL
Clouds:sky clear below 12,000 feet AGL
Text:KSFO 200856Z 00000KT 10SM CLR 14/09 A2982 RMK AO2 SLP097 T01440094 58004
Temperature: 14.4°C ( 58°F)
Dewpoint: 9.4°C ( 49°F) [RH = 72%]
Pressure (altimeter):29.82 inches Hg (1009.9 mb) [Sea level pressure: 1009.7 mb]
Winds:calm
Visibility:10 or more sm (16+ km)
Ceiling:at least 12,000 feet AGL
Clouds:sky clear below 12,000 feet AGL
Text:KSFO 200756Z 00000KT 10SM CLR 15/09 A2983 RMK AO2 SLP100 T01500094 402390106
Temperature: 15.0°C ( 59°F)
Dewpoint: 9.4°C ( 49°F) [RH = 69%]
Pressure (altimeter):29.83 inches Hg (1010.2 mb) [Sea level pressure: 1010.0 mb]
Winds:calm
Visibility:10 or more sm (16+ km)
Ceiling:at least 12,000 feet AGL
Clouds:sky clear below 12,000 feet AGL
Text:KSFO 200656Z 29005KT 10SM CLR 15/09 A2982 RMK AO2 SLP099 T01500089
Temperature: 15.0°C ( 59°F)
Dewpoint: 8.9°C ( 48°F) [RH = 67%]
Pressure (altimeter):29.82 inches Hg (1009.9 mb) [Sea level pressure: 1009.9 mb]
Winds:from the WNW (290 degrees) at 6 MPH (5 knots; 2.6 m/s)
Visibility:10 or more sm (16+ km)
Ceiling:at least 12,000 feet AGL
Clouds:sky clear below 12,000 feet AGL
Text:KSFO 200556Z 29005KT 10SM CLR 14/09 A2983 RMK AO2 SLP101 T01440089 10194 20144 50003
Temperature: 14.4°C ( 58°F)
Dewpoint: 8.9°C ( 48°F) [RH = 70%]
Pressure (altimeter):29.83 inches Hg (1010.2 mb) [Sea level pressure: 1010.1 mb]
Winds:from the WNW (290 degrees) at 6 MPH (5 knots; 2.6 m/s)
Visibility:10 or more sm (16+ km)
Ceiling:at least 12,000 feet AGL
Clouds:sky clear below 12,000 feet AGL
Text:KSFO 200456Z 28008KT 10SM CLR 16/09 A2984 RMK AO2 SLP105 T01560089
Temperature: 15.6°C ( 60°F)
Dewpoint: 8.9°C ( 48°F) [RH = 64%]
Pressure (altimeter):29.84 inches Hg (1010.6 mb) [Sea level pressure: 1010.5 mb]
Winds:from the W (280 degrees) at 9 MPH (8 knots; 4.1 m/s)
Visibility:10 or more sm (16+ km)
Ceiling:at least 12,000 feet AGL
Clouds:sky clear below 12,000 feet AGL